sensor_id;sensor_type;location;lat;lon;timestamp;P1;durP1;ratioP1;P2;durP2;ratioP2
74644;SDS011;63163;55.630;37.594;2023-05-07T13:59:00;4.1;;;1.0;;
74644;SDS011;63163;55.630;37.594;2023-05-07T14:00:01;3.6;;;1.3;;
74644;SDS011;63163;55.630;37.594;2023-05-07T14:01:02;2.0;;;1.1;;
74644;SDS011;63163;55.630;37.594;2023-05-07T14:02:02;1.8;;;1.1;;
74644;SDS011;63163;55.630;37.594;2023-05-07T14:03:03;2.5;;;1.2;;
74644;SDS011;63163;55.630;37.594;2023-05-07T14:04:04;2.4;;;1.1;;
74644;SDS011;63163;55.630;37.594;2023-05-07T14:05:05;3.0;;;1.1;;
74644;SDS011;63163;55.630;37.594;2023-05-07T14:06:05;2.0;;;1.1;;
74644;SDS011;63163;55.630;37.594;2023-05-07T14:07:06;2.0;;;1.0;;
74644;SDS011;63163;55.630;37.594;2023-05-07T14:08:07;3.0;;;1.1;;
74644;SDS011;63163;55.630;37.594;2023-05-07T14:09:07;2.2;;;1.1;;
74644;SDS011;63163;55.630;37.594;2023-05-07T14:10:08;1.7;;;0.8;;
74644;SDS011;63163;55.630;37.594;2023-05-07T14:11:09;1.9;;;1.2;;
74644;SDS011;63163;55.630;37.594;2023-05-07T14:12:10;2.3;;;1.3;;
74644;SDS011;63163;55.630;37.594;2023-05-07T14:13:10;2.4;;;1.6;;
74644;SDS011;63163;55.630;37.594;2023-05-07T14:14:11;2.4;;;1.1;;
74644;SDS011;63163;55.630;37.594;2023-05-07T14:15:11;3.1;;;1.4;;
74644;SDS011;63163;55.630;37.594;2023-05-07T14:16:12;2.6;;;1.4;;
74644;SDS011;63163;55.630;37.594;2023-05-07T14:17:12;1.9;;;1.0;;
74644;SDS011;63163;55.630;37.594;2023-05-07T14:18:13;1.4;;;1.1;;
74644;SDS011;63163;55.630;37.594;2023-05-07T14:19:13;3.2;;;1.4;;
74644;SDS011;63163;55.630;37.594;2023-05-07T14:20:14;3.0;;;1.2;;
74644;SDS011;63163;55.630;37.594;2023-05-07T14:21:14;2.8;;;1.4;;
74644;SDS011;63163;55.630;37.594;2023-05-07T14:22:15;3.7;;;1.2;;
74644;SDS011;63163;55.630;37.594;2023-05-07T14:23:16;2.7;;;1.2;;
74644;SDS011;63163;55.630;37.594;2023-05-07T14:24:17;2.2;;;1.1;;
74644;SDS011;63163;55.630;37.594;2023-05-07T14:25:18;2.2;;;1.1;;
74644;SDS011;63163;55.630;37.594;2023-05-07T14:26:20;2.4;;;1.3;;
74644;SDS011;63163;55.630;37.594;2023-05-07T14:27:20;2.5;;;1.3;;
74644;SDS011;63163;55.630;37.594;2023-05-07T14:28:21;2.6;;;1.2;;
74644;SDS011;63163;55.630;37.594;2023-05-07T14:29:21;2.2;;;1.2;;
74644;SDS011;63163;55.630;37.594;2023-05-07T14:30:23;3.1;;;1.3;;
74644;SDS011;63163;55.630;37.594;2023-05-07T14:31:24;3.8;;;1.3;;
74644;SDS011;63163;55.630;37.594;2023-05-07T14:32:25;1.7;;;1.1;;
74644;SDS011;63163;55.630;37.594;2023-05-07T14:33:25;4.7;;;1.2;;
74644;SDS011;63163;55.630;37.594;2023-05-07T14:34:26;3.2;;;1.3;;
74644;SDS011;63163;55.630;37.594;2023-05-07T14:35:26;2.1;;;1.1;;
74644;SDS011;63163;55.630;37.594;2023-05-07T14:36:27;1.6;;;1.1;;
74644;SDS011;63163;55.630;37.594;2023-05-07T14:37:27;2.3;;;1.1;;
74644;SDS011;63163;55.630;37.594;2023-05-07T14:38:28;3.2;;;1.2;;
74644;SDS011;63163;55.630;37.594;2023-05-07T14:39:28;1.9;;;1.1;;
74644;SDS011;63163;55.630;37.594;2023-05-07T14:40:29;1.6;;;1.1;;
74644;SDS011;63163;55.630;37.594;2023-05-07T14:41:30;3.6;;;1.2;;
74644;SDS011;63163;55.630;37.594;2023-05-07T14:42:31;2.9;;;1.4;;
74644;SDS011;63163;55.630;37.594;2023-05-07T14:43:32;2.8;;;1.0;;
74644;SDS011;63163;55.630;37.594;2023-05-07T14:44:32;2.1;;;1.0;;
74644;SDS011;63163;55.630;37.594;2023-05-07T14:45:33;2.4;;;1.1;;
74644;SDS011;63163;55.630;37.594;2023-05-07T14:46:33;3.1;;;1.2;;
74644;SDS011;63163;55.630;37.594;2023-05-07T14:47:34;3.6;;;1.4;;
74644;SDS011;63163;55.630;37.594;2023-05-07T14:48:35;1.9;;;1.1;;
74644;SDS011;63163;55.630;37.594;2023-05-07T14:49:35;2.6;;;1.0;;
74644;SDS011;63163;55.630;37.594;2023-05-07T14:50:36;1.9;;;1.1;;
74644;SDS011;63163;55.630;37.594;2023-05-07T14:51:36;2.4;;;1.2;;
74644;SDS011;63163;55.630;37.594;2023-05-07T14:52:37;3.4;;;1.1;;
74644;SDS011;63163;55.630;37.594;2023-05-07T14:53:37;2.1;;;0.9;;
74644;SDS011;63163;55.630;37.594;2023-05-07T14:54:38;2.6;;;1.6;;
74644;SDS011;63163;55.630;37.594;2023-05-07T14:55:38;2.9;;;1.3;;
74644;SDS011;63163;55.630;37.594;2023-05-07T14:56:39;1.5;;;1.0;;
74644;SDS011;63163;55.630;37.594;2023-05-07T14:57:40;1.6;;;1.0;;
74644;SDS011;63163;55.630;37.594;2023-05-07T14:58:40;2.4;;;1.2;;
74644;SDS011;63163;55.630;37.594;2023-05-07T14:59:41;2.8;;;1.3;;
74644;SDS011;63163;55.630;37.594;2023-05-07T15:00:42;2.1;;;1.2;;
74644;SDS011;63163;55.630;37.594;2023-05-07T15:01:42;1.9;;;1.2;;
74644;SDS011;63163;55.630;37.594;2023-05-07T15:02:45;1.7;;;1.0;;
74644;SDS011;63163;55.630;37.594;2023-05-07T15:03:46;2.5;;;1.3;;
74644;SDS011;63163;55.630;37.594;2023-05-07T15:04:46;2.5;;;1.2;;
74644;SDS011;63163;55.630;37.594;2023-05-07T15:05:47;3.8;;;1.2;;
74644;SDS011;63163;55.630;37.594;2023-05-07T15:06:48;3.4;;;1.3;;
74644;SDS011;63163;55.630;37.594;2023-05-07T15:07:48;3.2;;;1.1;;
74644;SDS011;63163;55.630;37.594;2023-05-07T15:08:49;2.3;;;1.1;;
74644;SDS011;63163;55.630;37.594;2023-05-07T15:09:49;2.7;;;1.2;;
74644;SDS011;63163;55.630;37.594;2023-05-07T15:10:51;2.2;;;1.2;;
74644;SDS011;63163;55.630;37.594;2023-05-07T15:11:51;2.3;;;1.2;;
74644;SDS011;63163;55.630;37.594;2023-05-07T15:12:52;2.7;;;1.4;;
74644;SDS011;63163;55.630;37.594;2023-05-07T15:13:52;1.9;;;1.1;;
74644;SDS011;63163;55.630;37.594;2023-05-07T15:14:53;3.6;;;1.6;;
74644;SDS011;63163;55.630;37.594;2023-05-07T15:15:53;2.5;;;1.1;;
74644;SDS011;63163;55.630;37.594;2023-05-07T15:16:54;2.0;;;1.3;;
74644;SDS011;63163;55.630;37.594;2023-05-07T15:17:54;4.8;;;1.7;;
74644;SDS011;63163;55.630;37.594;2023-05-07T15:18:55;2.0;;;1.2;;
74644;SDS011;63163;55.630;37.594;2023-05-07T15:19:55;3.3;;;1.5;;
74644;SDS011;63163;55.630;37.594;2023-05-07T15:20:56;3.7;;;1.3;;
74644;SDS011;63163;55.630;37.594;2023-05-07T15:21:58;3.0;;;1.3;;
74644;SDS011;63163;55.630;37.594;2023-05-07T15:22:59;2.8;;;1.3;;
74644;SDS011;63163;55.630;37.594;2023-05-07T15:24:00;1.3;;;1.1;;
74644;SDS011;63163;55.630;37.594;2023-05-07T15:25:01;2.0;;;1.1;;
74644;SDS011;63163;55.630;37.594;2023-05-07T15:26:02;2.4;;;1.3;;
74644;SDS011;63163;55.630;37.594;2023-05-07T15:27:02;3.9;;;1.4;;
74644;SDS011;63163;55.630;37.594;2023-05-07T15:28:03;4.2;;;1.5;;
74644;SDS011;63163;55.630;37.594;2023-05-07T15:29:03;3.8;;;1.3;;
74644;SDS011;63163;55.630;37.594;2023-05-07T15:30:10;3.6;;;1.3;;
74644;SDS011;63163;55.630;37.594;2023-05-07T15:31:11;2.5;;;1.3;;
74644;SDS011;63163;55.630;37.594;2023-05-07T15:32:11;1.9;;;1.2;;
74644;SDS011;63163;55.630;37.594;2023-05-07T15:33:13;2.8;;;1.5;;
74644;SDS011;63163;55.630;37.594;2023-05-07T15:34:14;3.3;;;1.7;;
74644;SDS011;63163;55.630;37.594;2023-05-07T15:35:15;2.6;;;1.2;;
74644;SDS011;63163;55.630;37.594;2023-05-07T15:36:15;2.4;;;1.2;;
74644;SDS011;63163;55.630;37.594;2023-05-07T15:37:16;4.1;;;1.3;;
74644;SDS011;63163;55.630;37.594;2023-05-07T15:38:16;2.1;;;1.4;;
74644;SDS011;63163;55.630;37.594;2023-05-07T15:39:17;2.4;;;1.2;;
74644;SDS011;63163;55.630;37.594;2023-05-07T15:40:17;2.4;;;1.1;;
74644;SDS011;63163;55.630;37.594;2023-05-07T15:41:18;3.1;;;1.2;;
74644;SDS011;63163;55.630;37.594;2023-05-07T15:42:18;3.0;;;1.3;;
74644;SDS011;63163;55.630;37.594;2023-05-07T15:43:20;1.7;;;1.1;;
74644;SDS011;63163;55.630;37.594;2023-05-07T15:44:20;2.7;;;1.3;;
74644;SDS011;63163;55.630;37.594;2023-05-07T15:45:21;2.1;;;1.2;;
74644;SDS011;63163;55.630;37.594;2023-05-07T15:46:22;1.9;;;1.1;;
74644;SDS011;63163;55.630;37.594;2023-05-07T15:47:24;2.7;;;2.0;;
74644;SDS011;63163;55.630;37.594;2023-05-07T15:48:25;2.8;;;1.3;;
74644;SDS011;63163;55.630;37.594;2023-05-07T15:49:25;2.4;;;1.3;;
74644;SDS011;63163;55.630;37.594;2023-05-07T15:50:26;3.9;;;1.2;;
74644;SDS011;63163;55.630;37.594;2023-05-07T15:51:27;2.2;;;1.1;;
74644;SDS011;63163;55.630;37.594;2023-05-07T15:52:28;2.6;;;1.1;;
74644;SDS011;63163;55.630;37.594;2023-05-07T15:53:28;3.8;;;1.4;;
74644;SDS011;63163;55.630;37.594;2023-05-07T15:54:29;2.5;;;1.1;;
74644;SDS011;63163;55.630;37.594;2023-05-07T15:55:30;2.3;;;1.3;;
74644;SDS011;63163;55.630;37.594;2023-05-07T15:56:31;3.4;;;1.3;;
74644;SDS011;63163;55.630;37.594;2023-05-07T15:57:32;3.8;;;1.3;;
74644;SDS011;63163;55.630;37.594;2023-05-07T15:58:33;2.1;;;1.3;;
74644;SDS011;63163;55.630;37.594;2023-05-07T15:59:33;2.1;;;1.3;;
74644;SDS011;63163;55.630;37.594;2023-05-07T16:00:35;2.1;;;1.3;;
74644;SDS011;63163;55.630;37.594;2023-05-07T16:01:37;1.7;;;1.2;;
74644;SDS011;63163;55.630;37.594;2023-05-07T16:02:38;3.0;;;1.2;;
74644;SDS011;63163;55.630;37.594;2023-05-07T16:03:38;2.5;;;1.3;;
74644;SDS011;63163;55.630;37.594;2023-05-07T16:04:40;2.9;;;1.4;;
74644;SDS011;63163;55.630;37.594;2023-05-07T16:05:41;2.7;;;1.5;;
74644;SDS011;63163;55.630;37.594;2023-05-07T16:06:41;4.1;;;1.2;;
74644;SDS011;63163;55.630;37.594;2023-05-07T16:07:44;2.8;;;1.4;;
74644;SDS011;63163;55.630;37.594;2023-05-07T16:08:44;2.7;;;1.4;;
74644;SDS011;63163;55.630;37.594;2023-05-07T16:09:45;2.6;;;1.3;;
74644;SDS011;63163;55.630;37.594;2023-05-07T16:10:46;2.9;;;1.3;;
74644;SDS011;63163;55.630;37.594;2023-05-07T16:11:47;4.4;;;1.4;;
74644;SDS011;63163;55.630;37.594;2023-05-07T16:12:48;4.2;;;1.4;;
74644;SDS011;63163;55.630;37.594;2023-05-07T16:13:48;3.5;;;1.1;;
74644;SDS011;63163;55.630;37.594;2023-05-07T16:14:49;2.1;;;1.3;;
74644;SDS011;63163;55.630;37.594;2023-05-07T16:15:54;2.8;;;1.4;;
74644;SDS011;63163;55.630;37.594;2023-05-07T16:16:55;2.8;;;1.3;;
74644;SDS011;63163;55.630;37.594;2023-05-07T16:17:56;4.3;;;1.2;;
74644;SDS011;63163;55.630;37.594;2023-05-07T16:18:58;1.5;;;1.0;;
74644;SDS011;63163;55.630;37.594;2023-05-07T16:19:58;1.9;;;1.2;;
74644;SDS011;63163;55.630;37.594;2023-05-07T16:20:59;3.3;;;1.2;;
74644;SDS011;63163;55.630;37.594;2023-05-07T16:22:00;3.5;;;1.2;;
74644;SDS011;63163;55.630;37.594;2023-05-07T16:23:01;2.7;;;1.4;;
74644;SDS011;63163;55.630;37.594;2023-05-07T16:24:01;3.6;;;1.2;;
74644;SDS011;63163;55.630;37.594;2023-05-07T16:25:02;1.9;;;1.2;;
74644;SDS011;63163;55.630;37.594;2023-05-07T16:26:04;2.6;;;1.4;;
74644;SDS011;63163;55.630;37.594;2023-05-07T16:27:04;2.1;;;1.1;;
74644;SDS011;63163;55.630;37.594;2023-05-07T16:28:05;2.7;;;1.3;;
74644;SDS011;63163;55.630;37.594;2023-05-07T16:29:07;3.0;;;1.3;;
74644;SDS011;63163;55.630;37.594;2023-05-07T16:30:07;2.9;;;1.2;;
74644;SDS011;63163;55.630;37.594;2023-05-07T16:31:08;3.3;;;1.2;;
74644;SDS011;63163;55.630;37.594;2023-05-07T16:32:09;2.2;;;1.3;;
74644;SDS011;63163;55.630;37.594;2023-05-07T16:33:09;2.5;;;1.4;;
74644;SDS011;63163;55.630;37.594;2023-05-07T16:34:10;1.8;;;1.2;;
74644;SDS011;63163;55.630;37.594;2023-05-07T16:35:10;2.6;;;1.2;;
74644;SDS011;63163;55.630;37.594;2023-05-07T16:36:11;2.3;;;1.2;;
74644;SDS011;63163;55.630;37.594;2023-05-07T16:37:11;4.3;;;1.2;;
74644;SDS011;63163;55.630;37.594;2023-05-07T16:38:12;2.7;;;1.3;;
74644;SDS011;63163;55.630;37.594;2023-05-07T16:39:13;5.9;;;1.3;;
74644;SDS011;63163;55.630;37.594;2023-05-07T16:40:13;3.0;;;1.4;;
74644;SDS011;63163;55.630;37.594;2023-05-07T16:41:14;2.4;;;1.3;;
74644;SDS011;63163;55.630;37.594;2023-05-07T16:42:14;3.3;;;1.4;;
74644;SDS011;63163;55.630;37.594;2023-05-07T16:43:15;3.5;;;1.1;;
74644;SDS011;63163;55.630;37.594;2023-05-07T16:44:15;1.9;;;1.1;;
74644;SDS011;63163;55.630;37.594;2023-05-07T16:45:16;3.2;;;1.2;;
74644;SDS011;63163;55.630;37.594;2023-05-07T16:46:18;2.9;;;1.1;;
74644;SDS011;63163;55.630;37.594;2023-05-07T16:47:18;4.6;;;1.3;;
74644;SDS011;63163;55.630;37.594;2023-05-07T16:48:19;1.8;;;1.2;;
74644;SDS011;63163;55.630;37.594;2023-05-07T16:49:20;4.7;;;1.2;;
74644;SDS011;63163;55.630;37.594;2023-05-07T16:50:20;3.7;;;1.3;;
74644;SDS011;63163;55.630;37.594;2023-05-07T16:51:21;1.9;;;1.1;;
74644;SDS011;63163;55.630;37.594;2023-05-07T16:52:23;3.4;;;1.3;;
74644;SDS011;63163;55.630;37.594;2023-05-07T16:53:24;3.2;;;1.3;;
74644;SDS011;63163;55.630;37.594;2023-05-07T16:54:24;3.9;;;1.2;;
74644;SDS011;63163;55.630;37.594;2023-05-07T16:55:25;4.2;;;1.5;;
74644;SDS011;63163;55.630;37.594;2023-05-07T16:56:25;2.7;;;1.2;;
74644;SDS011;63163;55.630;37.594;2023-05-07T16:57:26;2.6;;;1.3;;
74644;SDS011;63163;55.630;37.594;2023-05-07T16:58:27;4.0;;;1.4;;
74644;SDS011;63163;55.630;37.594;2023-05-07T16:59:27;3.4;;;1.3;;
74644;SDS011;63163;55.630;37.594;2023-05-07T17:00:31;2.7;;;1.4;;
74644;SDS011;63163;55.630;37.594;2023-05-07T17:01:32;2.2;;;1.4;;
74644;SDS011;63163;55.630;37.594;2023-05-07T17:02:32;2.2;;;1.2;;
74644;SDS011;63163;55.630;37.594;2023-05-07T17:03:34;4.0;;;1.3;;
74644;SDS011;63163;55.630;37.594;2023-05-07T17:04:35;3.5;;;1.3;;
74644;SDS011;63163;55.630;37.594;2023-05-07T17:05:35;1.9;;;1.2;;
74644;SDS011;63163;55.630;37.594;2023-05-07T17:06:36;3.9;;;1.5;;
74644;SDS011;63163;55.630;37.594;2023-05-07T17:07:36;3.4;;;1.4;;
74644;SDS011;63163;55.630;37.594;2023-05-07T17:08:37;3.4;;;1.6;;
74644;SDS011;63163;55.630;37.594;2023-05-07T17:09:37;4.2;;;1.4;;
74644;SDS011;63163;55.630;37.594;2023-05-07T17:10:38;2.4;;;1.4;;
74644;SDS011;63163;55.630;37.594;2023-05-07T17:11:38;2.2;;;1.1;;
74644;SDS011;63163;55.630;37.594;2023-05-07T17:12:39;4.9;;;1.3;;
74644;SDS011;63163;55.630;37.594;2023-05-07T17:13:40;4.2;;;1.4;;
74644;SDS011;63163;55.630;37.594;2023-05-07T17:14:41;3.4;;;1.5;;
74644;SDS011;63163;55.630;37.594;2023-05-07T17:15:41;3.6;;;1.6;;
74644;SDS011;63163;55.630;37.594;2023-05-07T17:16:44;2.9;;;1.3;;
74644;SDS011;63163;55.630;37.594;2023-05-07T17:17:44;2.0;;;1.5;;
74644;SDS011;63163;55.630;37.594;2023-05-07T17:18:45;3.2;;;1.5;;
74644;SDS011;63163;55.630;37.594;2023-05-07T17:19:45;3.2;;;1.6;;
74644;SDS011;63163;55.630;37.594;2023-05-07T17:20:46;2.8;;;1.5;;
74644;SDS011;63163;55.630;37.594;2023-05-07T17:21:46;3.7;;;1.5;;
74644;SDS011;63163;55.630;37.594;2023-05-07T17:22:47;2.9;;;1.5;;
74644;SDS011;63163;55.630;37.594;2023-05-07T17:23:47;2.5;;;1.3;;
74644;SDS011;63163;55.630;37.594;2023-05-07T17:24:48;4.2;;;1.5;;
74644;SDS011;63163;55.630;37.594;2023-05-07T17:25:48;3.0;;;1.6;;
74644;SDS011;63163;55.630;37.594;2023-05-07T17:26:49;3.1;;;2.0;;
74644;SDS011;63163;55.630;37.594;2023-05-07T17:27:49;5.0;;;2.2;;
74644;SDS011;63163;55.630;37.594;2023-05-07T17:28:50;3.8;;;1.9;;
74644;SDS011;63163;55.630;37.594;2023-05-07T17:29:51;5.8;;;2.9;;
74644;SDS011;63163;55.630;37.594;2023-05-07T17:30:51;7.5;;;2.1;;
74644;SDS011;63163;55.630;37.594;2023-05-07T17:31:51;2.8;;;1.7;;
74644;SDS011;63163;55.630;37.594;2023-05-07T17:32:52;3.8;;;1.8;;
74644;SDS011;63163;55.630;37.594;2023-05-07T17:33:54;5.9;;;2.2;;
74644;SDS011;63163;55.630;37.594;2023-05-07T17:34:55;5.9;;;2.1;;
74644;SDS011;63163;55.630;37.594;2023-05-07T17:35:56;5.9;;;2.6;;
74644;SDS011;63163;55.630;37.594;2023-05-07T17:36:56;6.1;;;2.5;;
74644;SDS011;63163;55.630;37.594;2023-05-07T17:37:57;6.7;;;3.2;;
74644;SDS011;63163;55.630;37.594;2023-05-07T17:38:58;8.1;;;2.7;;
74644;SDS011;63163;55.630;37.594;2023-05-07T17:39:59;5.6;;;2.3;;
74644;SDS011;63163;55.630;37.594;2023-05-07T17:40:59;7.8;;;4.6;;
74644;SDS011;63163;55.630;37.594;2023-05-07T17:42:00;8.2;;;3.7;;
74644;SDS011;63163;55.630;37.594;2023-05-07T17:43:01;7.3;;;2.9;;
74644;SDS011;63163;55.630;37.594;2023-05-07T17:44:02;8.4;;;3.8;;
74644;SDS011;63163;55.630;37.594;2023-05-07T17:45:03;6.6;;;3.6;;
74644;SDS011;63163;55.630;37.594;2023-05-07T17:46:03;4.0;;;1.8;;
74644;SDS011;63163;55.630;37.594;2023-05-07T17:47:04;3.5;;;1.5;;
74644;SDS011;63163;55.630;37.594;2023-05-07T17:48:06;8.0;;;3.4;;
74644;SDS011;63163;55.630;37.594;2023-05-07T17:49:06;5.1;;;2.5;;
74644;SDS011;63163;55.630;37.594;2023-05-07T17:50:08;5.5;;;2.2;;
74644;SDS011;63163;55.630;37.594;2023-05-07T17:51:10;6.1;;;2.1;;
74644;SDS011;63163;55.630;37.594;2023-05-07T17:52:10;3.8;;;1.5;;
74644;SDS011;63163;55.630;37.594;2023-05-07T17:53:11;4.9;;;1.8;;
74644;SDS011;63163;55.630;37.594;2023-05-07T17:54:11;5.7;;;1.8;;
74644;SDS011;63163;55.630;37.594;2023-05-07T17:55:12;4.7;;;2.2;;
74644;SDS011;63163;55.630;37.594;2023-05-07T17:56:12;4.8;;;2.2;;
74644;SDS011;63163;55.630;37.594;2023-05-07T17:57:13;6.9;;;2.6;;
74644;SDS011;63163;55.630;37.594;2023-05-07T17:58:13;4.1;;;1.8;;
74644;SDS011;63163;55.630;37.594;2023-05-07T17:59:14;4.7;;;2.1;;
74644;SDS011;63163;55.630;37.594;2023-05-07T18:00:15;4.7;;;2.4;;
74644;SDS011;63163;55.630;37.594;2023-05-07T18:01:15;8.1;;;2.3;;
74644;SDS011;63163;55.630;37.594;2023-05-07T18:02:16;4.6;;;2.3;;
74644;SDS011;63163;55.630;37.594;2023-05-07T18:03:16;3.5;;;1.9;;
74644;SDS011;63163;55.630;37.594;2023-05-07T18:04:17;2.6;;;1.6;;
74644;SDS011;63163;55.630;37.594;2023-05-07T18:05:20;4.3;;;2.1;;
74644;SDS011;63163;55.630;37.594;2023-05-07T18:06:21;4.7;;;2.2;;
74644;SDS011;63163;55.630;37.594;2023-05-07T18:07:22;5.6;;;3.2;;
74644;SDS011;63163;55.630;37.594;2023-05-07T18:08:22;4.8;;;2.9;;
74644;SDS011;63163;55.630;37.594;2023-05-07T18:09:23;6.5;;;3.3;;
74644;SDS011;63163;55.630;37.594;2023-05-07T18:10:24;5.6;;;3.0;;
74644;SDS011;63163;55.630;37.594;2023-05-07T18:11:24;5.2;;;3.0;;
74644;SDS011;63163;55.630;37.594;2023-05-07T18:12:25;9.7;;;3.5;;
74644;SDS011;63163;55.630;37.594;2023-05-07T18:13:25;5.1;;;2.8;;
74644;SDS011;63163;55.630;37.594;2023-05-07T18:14:26;4.9;;;2.3;;
74644;SDS011;63163;55.630;37.594;2023-05-07T18:15:26;7.5;;;2.1;;
74644;SDS011;63163;55.630;37.594;2023-05-07T18:16:27;5.8;;;2.5;;
74644;SDS011;63163;55.630;37.594;2023-05-07T18:17:27;4.0;;;2.8;;
74644;SDS011;63163;55.630;37.594;2023-05-07T18:18:28;6.0;;;2.7;;
74644;SDS011;63163;55.630;37.594;2023-05-07T18:19:30;7.1;;;2.8;;
74644;SDS011;63163;55.630;37.594;2023-05-07T18:20:30;4.5;;;2.4;;
74644;SDS011;63163;55.630;37.594;2023-05-07T18:21:31;6.0;;;2.9;;
74644;SDS011;63163;55.630;37.594;2023-05-07T18:22:31;6.2;;;2.4;;
74644;SDS011;63163;55.630;37.594;2023-05-07T18:23:32;3.6;;;1.9;;
74644;SDS011;63163;55.630;37.594;2023-05-07T18:24:35;5.3;;;2.8;;
74644;SDS011;63163;55.630;37.594;2023-05-07T18:25:36;6.1;;;2.5;;
74644;SDS011;63163;55.630;37.594;2023-05-07T18:26:36;5.7;;;1.9;;
74644;SDS011;63163;55.630;37.594;2023-05-07T18:27:37;3.2;;;1.6;;
74644;SDS011;63163;55.630;37.594;2023-05-07T18:28:37;3.6;;;1.8;;
74644;SDS011;63163;55.630;37.594;2023-05-07T18:29:38;4.9;;;1.8;;
74644;SDS011;63163;55.630;37.594;2023-05-07T18:30:38;4.2;;;1.6;;
74644;SDS011;63163;55.630;37.594;2023-05-07T18:31:39;4.3;;;1.7;;
74644;SDS011;63163;55.630;37.594;2023-05-07T18:32:39;3.3;;;1.6;;
74644;SDS011;63163;55.630;37.594;2023-05-07T18:33:40;3.8;;;1.8;;
74644;SDS011;63163;55.630;37.594;2023-05-07T18:34:40;4.3;;;1.9;;
74644;SDS011;63163;55.630;37.594;2023-05-07T18:35:41;5.2;;;2.1;;
74644;SDS011;63163;55.630;37.594;2023-05-07T18:36:41;4.6;;;2.3;;
74644;SDS011;63163;55.630;37.594;2023-05-07T18:37:42;5.5;;;2.6;;
74644;SDS011;63163;55.630;37.594;2023-05-07T18:38:42;5.5;;;2.5;;
74644;SDS011;63163;55.630;37.594;2023-05-07T18:39:43;7.0;;;3.3;;
74644;SDS011;63163;55.630;37.594;2023-05-07T18:40:43;4.3;;;2.0;;
74644;SDS011;63163;55.630;37.594;2023-05-07T18:41:44;5.3;;;2.8;;
74644;SDS011;63163;55.630;37.594;2023-05-07T18:42:47;4.9;;;2.6;;
74644;SDS011;63163;55.630;37.594;2023-05-07T18:43:48;5.7;;;2.9;;
74644;SDS011;63163;55.630;37.594;2023-05-07T18:44:48;6.2;;;3.0;;
74644;SDS011;63163;55.630;37.594;2023-05-07T18:45:49;5.4;;;2.1;;
74644;SDS011;63163;55.630;37.594;2023-05-07T18:46:50;6.5;;;1.7;;
74644;SDS011;63163;55.630;37.594;2023-05-07T18:47:50;3.0;;;1.5;;
74644;SDS011;63163;55.630;37.594;2023-05-07T18:48:51;4.5;;;2.2;;
74644;SDS011;63163;55.630;37.594;2023-05-07T18:49:52;9.5;;;3.3;;
74644;SDS011;63163;55.630;37.594;2023-05-07T18:50:52;6.3;;;2.9;;
74644;SDS011;63163;55.630;37.594;2023-05-07T18:51:53;5.3;;;2.3;;
74644;SDS011;63163;55.630;37.594;2023-05-07T18:52:53;5.4;;;1.9;;
74644;SDS011;63163;55.630;37.594;2023-05-07T18:53:54;3.5;;;1.9;;
74644;SDS011;63163;55.630;37.594;2023-05-07T18:54:54;4.3;;;1.8;;
74644;SDS011;63163;55.630;37.594;2023-05-07T18:55:55;3.8;;;2.1;;
74644;SDS011;63163;55.630;37.594;2023-05-07T18:56:55;4.2;;;2.1;;
74644;SDS011;63163;55.630;37.594;2023-05-07T18:57:56;4.0;;;2.1;;
74644;SDS011;63163;55.630;37.594;2023-05-07T18:58:56;4.9;;;2.0;;
74644;SDS011;63163;55.630;37.594;2023-05-07T18:59:57;5.2;;;1.9;;
74644;SDS011;63163;55.630;37.594;2023-05-07T19:00:57;2.9;;;1.8;;
74644;SDS011;63163;55.630;37.594;2023-05-07T19:01:58;4.8;;;2.8;;
74644;SDS011;63163;55.630;37.594;2023-05-07T19:02:58;7.0;;;2.7;;
74644;SDS011;63163;55.630;37.594;2023-05-07T19:03:59;4.2;;;2.0;;
74644;SDS011;63163;55.630;37.594;2023-05-07T19:04:59;2.8;;;1.8;;
74644;SDS011;63163;55.630;37.594;2023-05-07T19:06:00;3.6;;;2.0;;
74644;SDS011;63163;55.630;37.594;2023-05-07T19:07:01;4.2;;;2.0;;
74644;SDS011;63163;55.630;37.594;2023-05-07T19:08:01;4.7;;;2.2;;
74644;SDS011;63163;55.630;37.594;2023-05-07T19:09:02;3.7;;;1.7;;
74644;SDS011;63163;55.630;37.594;2023-05-07T19:10:05;3.7;;;1.9;;
74644;SDS011;63163;55.630;37.594;2023-05-07T19:11:05;5.5;;;2.0;;
74644;SDS011;63163;55.630;37.594;2023-05-07T19:12:06;3.4;;;1.9;;
74644;SDS011;63163;55.630;37.594;2023-05-07T19:13:06;3.1;;;1.8;;
74644;SDS011;63163;55.630;37.594;2023-05-07T19:14:07;6.9;;;1.9;;
74644;SDS011;63163;55.630;37.594;2023-05-07T19:15:10;3.3;;;1.6;;
74644;SDS011;63163;55.630;37.594;2023-05-07T19:16:11;6.3;;;2.2;;
74644;SDS011;63163;55.630;37.594;2023-05-07T19:17:12;4.3;;;2.0;;
74644;SDS011;63163;55.630;37.594;2023-05-07T19:18:15;3.5;;;2.0;;
74644;SDS011;63163;55.630;37.594;2023-05-07T19:19:15;5.1;;;2.3;;
74644;SDS011;63163;55.630;37.594;2023-05-07T19:20:16;5.5;;;2.1;;
74644;SDS011;63163;55.630;37.594;2023-05-07T19:21:16;3.9;;;1.8;;
74644;SDS011;63163;55.630;37.594;2023-05-07T19:22:17;3.7;;;2.0;;
74644;SDS011;63163;55.630;37.594;2023-05-07T19:23:17;5.7;;;2.4;;
74644;SDS011;63163;55.630;37.594;2023-05-07T19:24:18;3.7;;;2.0;;
74644;SDS011;63163;55.630;37.594;2023-05-07T19:25:18;4.1;;;1.9;;
74644;SDS011;63163;55.630;37.594;2023-05-07T19:26:19;4.9;;;2.2;;
74644;SDS011;63163;55.630;37.594;2023-05-07T19:27:20;3.8;;;1.6;;
74644;SDS011;63163;55.630;37.594;2023-05-07T19:28:21;4.9;;;2.4;;
74644;SDS011;63163;55.630;37.594;2023-05-07T19:29:21;8.4;;;2.7;;
74644;SDS011;63163;55.630;37.594;2023-05-07T19:30:22;7.4;;;2.9;;
74644;SDS011;63163;55.630;37.594;2023-05-07T19:31:23;3.7;;;2.1;;
74644;SDS011;63163;55.630;37.594;2023-05-07T19:32:25;4.8;;;2.5;;
74644;SDS011;63163;55.630;37.594;2023-05-07T19:33:26;6.1;;;2.2;;
74644;SDS011;63163;55.630;37.594;2023-05-07T19:34:29;3.1;;;1.7;;
74644;SDS011;63163;55.630;37.594;2023-05-07T19:35:30;5.0;;;2.0;;
74644;SDS011;63163;55.630;37.594;2023-05-07T19:36:30;3.8;;;1.7;;
74644;SDS011;63163;55.630;37.594;2023-05-07T19:37:33;2.9;;;1.8;;
74644;SDS011;63163;55.630;37.594;2023-05-07T19:38:34;5.9;;;2.2;;
74644;SDS011;63163;55.630;37.594;2023-05-07T19:39:34;3.6;;;1.6;;
74644;SDS011;63163;55.630;37.594;2023-05-07T19:40:35;5.5;;;2.0;;
74644;SDS011;63163;55.630;37.594;2023-05-07T19:41:35;2.6;;;1.7;;
74644;SDS011;63163;55.630;37.594;2023-05-07T19:42:36;5.5;;;1.9;;
74644;SDS011;63163;55.630;37.594;2023-05-07T19:43:36;4.6;;;1.9;;
74644;SDS011;63163;55.630;37.594;2023-05-07T19:44:37;4.3;;;1.9;;
74644;SDS011;63163;55.630;37.594;2023-05-07T19:45:38;4.1;;;2.3;;
74644;SDS011;63163;55.630;37.594;2023-05-07T19:46:42;3.7;;;2.0;;
74644;SDS011;63163;55.630;37.594;2023-05-07T19:47:46;5.6;;;1.9;;
74644;SDS011;63163;55.630;37.594;2023-05-07T19:48:46;6.4;;;2.0;;
74644;SDS011;63163;55.630;37.594;2023-05-07T19:49:47;3.5;;;1.9;;
74644;SDS011;63163;55.630;37.594;2023-05-07T19:50:47;5.4;;;2.1;;
74644;SDS011;63163;55.630;37.594;2023-05-07T19:51:48;5.0;;;1.9;;
74644;SDS011;63163;55.630;37.594;2023-05-07T19:52:49;6.5;;;1.9;;
74644;SDS011;63163;55.630;37.594;2023-05-07T19:53:49;4.6;;;1.8;;
74644;SDS011;63163;55.630;37.594;2023-05-07T19:54:50;3.5;;;1.9;;
74644;SDS011;63163;55.630;37.594;2023-05-07T19:55:58;5.1;;;1.8;;
74644;SDS011;63163;55.630;37.594;2023-05-07T19:56:59;5.9;;;1.9;;
74644;SDS011;63163;55.630;37.594;2023-05-07T19:57:59;5.2;;;1.8;;
74644;SDS011;63163;55.630;37.594;2023-05-07T19:59:00;4.1;;;1.9;;
74644;SDS011;63163;55.630;37.594;2023-05-07T20:00:00;4.8;;;1.9;;
74644;SDS011;63163;55.630;37.594;2023-05-07T20:01:01;6.4;;;1.9;;
74644;SDS011;63163;55.630;37.594;2023-05-07T20:02:02;3.0;;;1.9;;
74644;SDS011;63163;55.630;37.594;2023-05-07T20:03:02;4.1;;;1.9;;
74644;SDS011;63163;55.630;37.594;2023-05-07T20:04:03;6.1;;;1.8;;
74644;SDS011;63163;55.630;37.594;2023-05-07T20:05:04;5.7;;;1.9;;
74644;SDS011;63163;55.630;37.594;2023-05-07T20:06:04;3.2;;;1.7;;
74644;SDS011;63163;55.630;37.594;2023-05-07T20:07:05;7.3;;;2.0;;
74644;SDS011;63163;55.630;37.594;2023-05-07T20:08:05;8.4;;;2.0;;
74644;SDS011;63163;55.630;37.594;2023-05-07T20:09:07;6.4;;;1.9;;
74644;SDS011;63163;55.630;37.594;2023-05-07T20:10:11;6.3;;;2.0;;